Latest Weather Observations for Roseworthy

IDS60801

Issued at 3:01 pm CST Sunday 23 April 2017 (issued every 30 minutes, with the page automatically refreshed every 10 minutes)

About weather observations | Map of weather stations | Latest weather observations for SA | Other Formats
Station Details ID: 023122 Name: ROSEWORTHY AWS Lat: -34.51 Lon: 138.68 Height: 65.0 m
Data from the previous 72 hours. | See also: Recent months at Roseworthy
Date/Time
CST
Temp
°C
App
Temp
°C
Dew
Point
°C
Rel
Hum
%
Delta-T
°C
Wind Press
QNH
hPa
Press
MSL
hPa
Rain since
9am
mm
Dir  Spd
km/h
Gust
km/h
Spd
kts
Gust
kts
23/03:00pm 23.5 21.9 12.8 51 6.1 ENE 13 20 7 11 1019.4 1019.3 0.0
23/02:30pm 23.9 22.2 12.5 49 6.5 E 13 17 7 9 1019.5 1019.4 0.0
23/02:00pm 24.2 22.1 12.5 48 6.7 E 15 22 8 12 1019.6 1019.5 0.0
23/01:30pm 24.5 21.8 11.8 45 7.2 NE 17 24 9 13 1019.8 1019.7 0.0
23/01:00pm 24.8 21.8 12.7 47 7.0 ENE 20 30 11 16 1020.1 1020.0 0.0
23/12:30pm 25.2 22.0 13.1 47 7.0 E 22 33 12 18 1020.6 1020.5 0.0
23/12:00pm 23.0 19.5 12.3 51 6.1 ENE 22 28 12 15 1021.2 1021.1 0.0
23/11:30am 23.0 19.1 12.0 50 6.2 ENE 24 30 13 16 1021.6 1021.5 0.0
23/11:00am 22.5 19.4 12.2 52 5.8 ENE 20 26 11 14 1021.9 1021.8 0.0
23/10:30am 21.4 18.5 12.3 56 5.1 E 19 28 10 15 1022.0 1021.9 0.0
23/10:00am 20.8 17.2 11.7 56 5.1 E 22 28 12 15 1022.3 1022.2 0.0
23/09:30am 20.4 17.8 11.9 58 4.7 ESE 17 24 9 13 1022.6 1022.5 0.0
23/09:00am 19.7 17.9 12.0 61 4.3 ESE 13 20 7 11 1022.7 1022.6 0.0
23/08:30am 18.3 15.6 11.6 65 3.7 E 17 24 9 13 1022.5 1022.4 0.0
23/08:00am 17.2 14.1 11.7 70 3.0 E 19 24 10 13 1022.1 1022.0 0.0
23/07:30am 16.1 13.7 11.3 73 2.6 E 15 19 8 10 1022.0 1021.9 0.0
23/07:00am 15.5 12.6 11.1 75 2.4 E 17 20 9 11 1021.7 1021.6 0.0
23/06:30am 15.7 12.8 11.1 74 2.5 ENE 17 20 9 11 1021.6 1021.5 0.0
23/06:00am 16.0 12.7 11.0 72 2.7 E 19 26 10 14 1021.2 1021.1 0.0
23/05:30am 16.5 13.1 11.2 71 2.9 E 20 24 11 13 1020.9 1020.8 0.0
23/05:00am 16.2 13.9 11.6 74 2.5 E 15 19 8 10 1020.8 1020.7 0.0
23/04:30am 16.1 14.9 11.7 75 2.4 ESE 9 13 5 7 1020.9 1020.8 0.0
23/04:00am 15.9 15.0 11.5 75 2.4 E 7 9 4 5 1021.0 1020.9 0.0
23/03:30am 15.9 14.3 11.7 76 2.3 ESE 11 15 6 8 1020.8 1020.7 0.0
23/03:00am 16.1 14.2 11.9 76 2.3 E 13 17 7 9 1021.0 1020.9 0.0
23/02:30am 16.2 15.6 11.8 75 2.4 SE 6 9 3 5 1021.4 1021.3 0.0
23/02:00am 16.5 14.6 11.9 74 2.5 ESE 13 19 7 10 1021.5 1021.4 0.0
23/01:30am 16.7 14.8 11.8 73 2.7 ESE 13 19 7 10 1021.5 1021.4 0.0
23/01:00am 16.6 15.1 12.0 74 2.5 ESE 11 17 6 9 1021.5 1021.4 0.0
23/12:30am 16.0 15.0 12.2 78 2.1 SE 9 15 5 8 1021.7 1021.6 0.0
23/12:00am 15.8 14.8 12.2 79 2.0 SE 9 11 5 6 1021.8 1021.7 0.0
 
Date/Time
CST
Temp
°C
App
Temp
°C
Dew
Point
°C
Rel
Hum
%
Delta-T
°C
Wind Press
QNH
hPa
Press
MSL
hPa
Rain since
9am
mm
Dir  Spd
km/h
Gust
km/h
Spd
kts
Gust
kts
22/11:30pm 16.3 15.3 12.3 77 2.2 SE 9 11 5 6 1022.0 1021.9 0.0
22/11:00pm 16.4 14.8 12.8 79 2.0 ESE 13 20 7 11 1022.0 1021.9 0.0
22/10:30pm 16.1 14.9 12.8 81 1.8 E 11 13 6 7 1022.1 1022.0 0.0
22/10:00pm 16.3 15.6 13.2 82 1.7 E 9 13 5 7 1022.2 1022.1 0.0
22/09:30pm 15.9 15.4 12.5 80 1.9 E 7 11 4 6 1022.3 1022.2 0.0
22/09:00pm 16.9 15.4 13.0 78 2.2 ESE 13 17 7 9 1022.1 1022.0 0.0
22/08:30pm 16.6 16.0 13.5 82 1.7 ESE 9 13 5 7 1021.9 1021.8 0.0
22/08:00pm 16.6 16.0 13.5 82 1.7 E 9 11 5 6 1021.8 1021.7 0.0
22/07:30pm 17.1 16.5 13.4 79 2.1 ESE 9 11 5 6 1021.6 1021.5 0.0
22/07:00pm 17.8 18.5 13.5 76 2.4 ESE 2 7 1 4 1021.4 1021.3 0.0
22/06:30pm 17.9 19.0 13.4 75 2.5 CALM 0 0 0 0 1021.2 1021.1 0.0
22/06:00pm 19.1 18.0 13.1 68 3.4 ENE 11 13 6 7 1020.8 1020.7 0.0
22/05:30pm 21.0 19.6 13.4 62 4.4 ENE 13 17 7 9 1020.5 1020.4 0.0
22/05:00pm 22.4 20.8 12.9 55 5.5 ENE 13 19 7 10 1020.4 1020.3 0.0
22/04:30pm 23.2 22.4 12.8 52 6.0 ENE 9 13 5 7 1020.4 1020.3 0.0
22/04:00pm 23.1 21.5 12.7 52 6.0 E 13 19 7 10 1020.4 1020.3 0.0
22/03:30pm 23.6 22.3 12.6 50 6.3 E 11 17 6 9 1020.3 1020.2 0.0
22/03:00pm 22.8 22.0 13.0 54 5.6 ESE 9 13 5 7 1020.3 1020.2 0.0
22/02:30pm 23.7 22.1 12.7 50 6.3 E 13 20 7 11 1020.3 1020.2 0.0
22/02:00pm 23.1 22.2 12.7 52 6.0 E 9 13 5 7 1020.7 1020.6 0.0
22/01:30pm 23.8 22.7 13.1 51 6.2 E 11 20 6 11 1020.8 1020.7 0.0
22/01:00pm 22.6 22.0 13.4 56 5.3 ESE 9 15 5 8 1021.3 1021.2 0.0
22/12:30pm 22.0 21.3 13.1 57 5.1 E 9 15 5 8 1021.7 1021.6 0.0
22/12:00pm 22.0 20.9 13.1 57 5.1 ESE 11 20 6 11 1022.0 1021.9 0.0
22/11:30am 22.2 20.5 13.5 57 5.0 NE 15 19 8 10 1022.4 1022.3 0.0
22/11:00am 21.8 20.2 12.9 57 5.1 ENE 13 19 7 10 1022.8 1022.7 0.0
22/10:30am 20.4 19.7 13.1 63 4.1 E 9 11 5 6 1023.2 1023.1 0.0
22/10:00am 20.6 19.9 13.1 62 4.3 ESE 9 15 5 8 1023.2 1023.1 0.0
22/09:30am 19.1 17.9 14.1 73 2.9 E 13 17 7 9 1023.2 1023.1 0.0
22/09:00am 18.4 18.5 14.5 78 2.3 ESE 7 11 4 6 1023.4 1023.3 0.2
22/08:30am 15.9 17.1 13.9 88 1.1 CALM 0 0 0 0 1023.3 1023.2 0.2
22/08:00am 14.5 14.3 12.9 90 0.9 E 6 7 3 4 1023.0 1022.9 0.2
22/07:30am 13.9 13.0 12.5 91 0.8 E 9 9 5 5 1022.7 1022.6 0.2
22/07:00am 13.7 13.2 12.1 90 0.9 ESE 6 9 3 5 1022.5 1022.4 0.2
22/06:30am 13.7 13.1 12.3 91 0.8 ESE 7 9 4 5 1022.3 1022.2 0.2
22/06:00am 13.4 12.3 12.0 91 0.8 ENE 9 11 5 6 1022.2 1022.1 0.2
22/05:30am 13.3 12.2 11.9 91 0.7 E 9 9 5 5 1022.0 1021.9 0.2
22/05:00am 13.4 12.0 12.1 92 0.7 NE 11 13 6 7 1021.8 1021.7 0.2
22/04:30am 12.9 11.7 11.5 91 0.7 E 9 11 5 6 1021.7 1021.6 0.2
22/04:00am 12.6 11.9 11.3 92 0.7 ESE 6 9 3 5 1021.6 1021.5 0.2
22/03:30am 12.6 11.7 11.3 92 0.7 E 7 9 4 5 1021.4 1021.3 0.2
22/03:00am 12.5 10.8 11.2 92 0.7 ENE 11 13 6 7 1021.6 1021.5 0.2
22/02:30am 11.5 9.9 10.2 92 0.7 E 9 9 5 5 1021.9 1021.8 0.2
22/02:00am 11.5 10.3 10.2 92 0.7 E 7 9 4 5 1021.9 1021.8 0.2
22/01:30am 11.8 9.5 10.5 92 0.7 NE 13 13 7 7 1022.0 1021.9 0.2
22/01:00am 11.5 9.5 10.1 91 0.7 E 11 13 6 7 1022.1 1022.0 0.2
22/12:30am 12.5 11.2 11.1 91 0.7 E 9 11 5 6 1022.2 1022.1 0.2
22/12:00am 12.7 11.8 11.3 91 0.7 E 7 9 4 5 1022.3 1022.2 0.2
 
Date/Time
CST
Temp
°C
App
Temp
°C
Dew
Point
°C
Rel
Hum
%
Delta-T
°C
Wind Press
QNH
hPa
Press
MSL
hPa
Rain since
9am
mm
Dir  Spd
km/h
Gust
km/h
Spd
kts
Gust
kts
21/11:30pm 13.6 12.5 12.0 90 0.9 ESE 9 11 5 6 1022.1 1022.0 0.2
21/11:00pm 12.6 10.5 11.2 91 0.7 E 13 13 7 7 1022.3 1022.2 0.2
21/10:30pm 12.4 11.3 10.8 90 0.8 ENE 7 9 4 5 1022.4 1022.3 0.2
21/10:00pm 12.6 12.9 10.8 89 0.9 CALM 0 6 0 3 1022.4 1022.3 0.2
21/09:30pm 12.9 13.2 11.0 88 1.0 CALM 0 0 0 0 1022.4 1022.3 0.2
21/09:00pm 13.0 12.1 10.7 86 1.2 E 6 7 3 4 1022.2 1022.1 0.2
21/08:30pm 14.6 14.0 11.7 83 1.6 SSW 6 7 3 4 1021.8 1021.7 0.2
21/08:00pm 15.0 15.7 12.3 84 1.5 CALM 0 0 0 0 1021.7 1021.6 0.2
21/07:30pm 15.3 16.1 12.4 83 1.6 CALM 0 0 0 0 1021.5 1021.4 0.2
21/07:00pm 16.0 15.6 12.9 82 1.7 SSW 7 9 4 5 1021.3 1021.2 0.2
21/06:30pm 16.4 15.6 12.9 80 1.9 SW 9 11 5 6 1021.1 1021.0 0.2
21/06:00pm 17.5 16.9 13.4 77 2.3 SW 9 11 5 6 1020.6 1020.5 0.2
21/05:30pm 19.1 17.7 13.3 69 3.3 SSW 13 17 7 9 1020.3 1020.2 0.0
21/05:00pm 20.4 18.4 12.6 61 4.4 SSW 15 19 8 10 1020.2 1020.1 0.0
21/04:30pm 21.3 19.6 12.4 57 5.0 SW 13 19 7 10 1020.1 1020.0 0.0
21/04:00pm 21.8 19.6 12.1 54 5.5 SW 15 19 8 10 1019.9 1019.8 0.0
21/03:30pm 22.3 20.1 12.0 52 5.8 SW 15 20 8 11 1019.7 1019.6 0.0
21/03:00pm 22.7 21.0 13.5 56 5.3 SSW 15 24 8 13 1019.6 1019.5 0.0
21/02:30pm 22.7 20.0 11.7 49 6.2 W 17 20 9 11 1019.6 1019.5 0.0
21/02:00pm 22.4 21.1 12.4 53 5.7 W 11 24 6 13 1019.8 1019.7 0.0
21/01:30pm 21.8 20.5 13.7 60 4.7 WSW 13 19 7 10 1020.3 1020.2 0.0
21/01:00pm 21.7 20.2 14.1 62 4.4 WSW 15 20 8 11 1020.6 1020.5 0.0
21/12:30pm 21.0 19.9 14.4 66 3.9 WSW 13 19 7 10 1021.0 1020.9 0.0
21/12:00pm 20.0 18.8 15.0 73 2.9 SW 15 19 8 10 1021.3 1021.2 0.0
21/11:30am 19.6 18.7 14.8 74 2.8 SW 13 19 7 10 1021.5 1021.4 0.0
21/11:00am 19.4 18.0 15.5 78 2.3 SW 17 22 9 12 1021.5 1021.4 0.0
21/10:30am 19.2 18.5 15.3 78 2.3 SW 13 17 7 9 1021.8 1021.7 0.0
21/10:00am 19.0 19.0 15.3 79 2.2 WSW 9 15 5 8 1021.9 1021.8 0.0
21/09:30am 17.8 18.5 16.1 90 1.0 SW 7 9 4 5 1022.0 1021.9 0.0
21/09:00am 17.4 16.6 16.1 92 0.8 WSW 15 19 8 10 1021.9 1021.8 58.6
21/08:30am 17.9 18.5 16.8 93 0.7 WSW 9 15 5 8 1021.6 1021.5 58.6
21/08:00am 17.9 18.1 16.8 93 0.7 NNW 11 13 6 7 1021.5 1021.4 58.6
21/07:30am 17.8 18.7 16.7 93 0.7 NNW 7 9 4 5 1021.1 1021.0 58.6
21/07:00am 17.3 18.0 16.0 92 0.8 NW 7 7 4 4 1020.7 1020.6 58.6
21/06:30am 17.9 18.4 16.6 92 0.8 NW 9 11 5 6 1020.6 1020.5 58.6
21/06:00am 18.2 19.2 16.9 92 0.8 NW 7 9 4 5 1020.2 1020.1 58.6
21/05:30am 18.2 19.4 16.9 92 0.8 W 6 7 3 4 1020.2 1020.1 58.6
21/05:00am 18.1 20.0 16.8 92 0.8 SSW 2 7 1 4 1019.6 1019.5 58.6
21/04:30am 18.0 18.9 16.7 92 0.8 SW 7 11 4 6 1019.2 1019.1 58.6
21/04:00am 18.0 19.1 16.7 92 0.8 WSW 6 9 3 5 1019.0 1018.9 58.6
21/03:30am 18.0 19.1 16.7 92 0.8 WSW 6 9 3 5 1018.9 1018.8 58.6
21/03:00am 18.1 18.7 16.8 92 0.8 WSW 9 11 5 6 1019.0 1018.9 58.6
21/02:30am 18.0 18.9 16.7 92 0.8 WSW 7 9 4 5 1019.1 1019.0 58.6
21/02:00am 18.0 19.5 16.7 92 0.8 S 4 7 2 4 1018.9 1018.8 58.6
21/01:30am 18.0 18.6 16.7 92 0.8 SSW 9 11 5 6 1019.2 1019.1 58.6
21/01:00am 18.2 18.5 16.9 92 0.8 SW 11 15 6 8 1019.1 1019.0 58.6
21/12:30am 18.4 18.0 17.1 92 0.8 SW 15 24 8 13 1019.1 1019.0 58.6
21/12:00am 18.8 18.9 17.5 92 0.8 NW 13 15 7 8 1019.1 1019.0 58.6
 
Date/Time
CST
Temp
°C
App
Temp
°C
Dew
Point
°C
Rel
Hum
%
Delta-T
°C
Wind Press
QNH
hPa
Press
MSL
hPa
Rain since
9am
mm
Dir  Spd
km/h
Gust
km/h
Spd
kts
Gust
kts
20/11:30pm 18.9 19.5 17.6 92 0.8 NNW 11 15 6 8 1019.1 1019.0 58.4
20/11:00pm 18.8 19.3 17.5 92 0.8 NNW 11 15 6 8 1019.3 1019.2 58.4
20/10:30pm 18.8 20.1 17.5 92 0.8 NW 7 9 4 5 1019.6 1019.5 58.4
20/10:00pm 18.7 19.2 17.5 93 0.7 NNW 11 15 6 8 1019.7 1019.6 58.4
20/09:30pm 18.4 19.1 17.1 92 0.8 NNW 9 11 5 6 1019.7 1019.6 58.4
20/09:00pm 18.8 20.1 17.5 92 0.8 NNW 7 9 4 5 1019.8 1019.7 58.4
20/08:30pm 19.1 20.5 17.8 92 0.8 NNW 7 11 4 6 1019.6 1019.5 58.4
20/08:00pm 19.1 19.7 17.8 92 0.8 NNW 11 13 6 7 1019.6 1019.5 58.4
20/07:30pm 19.3 20.0 18.0 92 0.8 NNW 11 13 6 7 1019.5 1019.4 58.4
20/07:00pm 19.4 20.1 17.9 91 0.9 NW 11 17 6 9 1019.4 1019.3 58.4
20/06:30pm 19.7 20.9 18.2 91 0.9 NW 9 19 5 10 1018.8 1018.7 58.4
20/06:00pm 19.5 20.2 18.0 91 0.9 NNW 11 17 6 9 1018.5 1018.4 58.4
20/05:30pm 19.5 20.7 18.2 92 0.8 NNW 9 13 5 7 1018.2 1018.1 58.4
20/05:00pm 19.7 20.6 18.4 92 0.8 NW 11 15 6 8 1018.4 1018.3 47.2
20/04:30pm 19.8 21.6 18.3 91 0.9 WNW 6 9 3 5 1018.5 1018.4 45.6
20/04:00pm 19.8 21.1 18.5 92 0.8 WNW 9 13 5 7 1018.3 1018.2 43.6
20/03:30pm 19.6 21.2 18.3 92 0.8 W 7 13 4 7 1018.1 1018.0 43.6

Other Formats:

Comma delimited format used in spreadsheet applications
http://www.bom.gov.au/fwo/IDS60801/IDS60801.95671.axf

JavaScript Object Notation format (JSON) in row-major order
http://www.bom.gov.au/fwo/IDS60801/IDS60801.95671.json